Time;durP1;ratioP1;P1;durP2;ratioP2;P2;SDS_P1;SDS_P2;PMS_P1;PMS_P2;Temp;Humidity;BMP_temperature;BMP_pressure;BME280_temperature;BME280_humidity;BME280_pressure;Samples;Min_cycle;Max_cycle;Signal;HPM_P1;HPM_P2
2021/09/21 00:01:46;;;;;;;9.48;5.97;;;;;;;4.73;93.01;99510.84;4168380;28;20365;-72
2021/09/21 00:03:46;;;;;;;10.20;6.18;;;;;;;4.73;93.11;99508.09;4166409;28;20086;-72
2021/09/21 00:05:46;;;;;;;9.52;6.85;;;;;;;4.70;92.69;99508.72;4168906;28;20314;-72
2021/09/21 00:07:47;;;;;;;8.73;5.90;;;;;;;4.73;92.90;99502.63;4168791;28;20049;-72
2021/09/21 00:09:47;;;;;;;7.38;5.38;;;;;;;4.71;92.64;99500.16;4166994;28;20060;-72
2021/09/21 00:11:48;;;;;;;8.65;5.68;;;;;;;4.71;92.89;99500.16;4170107;28;20473;-72
2021/09/21 00:13:48;;;;;;;10.25;6.18;;;;;;;4.64;92.61;99499.81;4165793;28;20049;-72
2021/09/21 00:15:49;;;;;;;11.27;6.32;;;;;;;4.65;92.42;99493.22;4168066;28;20470;-72
2021/09/21 00:17:50;;;;;;;9.18;6.07;;;;;;;4.75;92.76;99500.38;4165527;28;20344;-73
2021/09/21 00:19:50;;;;;;;9.65;6.25;;;;;;;4.73;92.08;99492.47;4169621;28;20069;-72
2021/09/21 00:21:50;;;;;;;9.02;6.10;;;;;;;4.71;92.30;99493.88;4171115;28;20052;-72
2021/09/21 00:23:51;;;;;;;8.38;5.90;;;;;;;4.69;92.05;99498.88;4170238;28;20037;-72
2021/09/21 00:25:51;;;;;;;8.50;6.25;;;;;;;4.81;92.61;99501.84;4171538;28;20057;-72
2021/09/21 00:27:51;;;;;;;7.55;6.20;;;;;;;4.94;91.43;99503.69;4170725;28;20562;-72
2021/09/21 00:29:52;;;;;;;7.18;5.68;;;;;;;4.99;90.96;99506.28;4171319;28;20261;-72
2021/09/21 00:32:01;;;;;;;8.32;5.68;;;;;;;4.93;90.57;99504.81;4171530;28;20088;-72
2021/09/21 00:34:07;;;;;;;8.68;5.90;;;;;;;4.83;90.86;99491.38;4170824;28;20084;-72
2021/09/21 00:36:07;;;;;;;8.98;5.65;;;;;;;4.80;89.98;99508.47;4171661;28;20071;-72
2021/09/21 00:38:08;;;;;;;8.95;5.40;;;;;;;4.78;90.74;99506.00;4171132;28;20326;-72
2021/09/21 00:40:09;;;;;;;9.55;5.82;;;;;;;4.81;90.35;99512.81;4166553;28;20040;-72
2021/09/21 00:42:10;;;;;;;6.95;5.13;;;;;;;4.71;90.24;99502.09;4165025;28;20065;-72
2021/09/21 00:44:10;;;;;;;8.35;6.10;;;;;;;4.56;91.15;99508.00;4167701;28;20070;-72
2021/09/21 00:46:11;;;;;;;9.23;7.45;;;;;;;4.44;92.12;99508.56;4167038;28;20048;-72
2021/09/21 00:48:11;;;;;;;8.32;6.18;;;;;;;4.50;92.96;99502.63;4170810;28;20456;-72
2021/09/21 00:50:11;;;;;;;8.35;5.97;;;;;;;4.55;91.01;99503.63;4170741;28;20047;-72
2021/09/21 00:52:12;;;;;;;9.68;6.70;;;;;;;4.50;91.05;99499.91;4171243;28;20099;-72
2021/09/21 00:54:12;;;;;;;11.30;6.47;;;;;;;4.34;91.80;99503.34;4168075;28;20021;-72
2021/09/21 00:56:12;;;;;;;10.27;6.28;;;;;;;4.25;92.63;99514.22;4169778;28;20055;-72
2021/09/21 00:58:13;;;;;;;11.60;6.40;;;;;;;4.17;91.90;99509.50;4169492;28;20033;-72
2021/09/21 01:00:14;;;;;;;7.78;5.72;;;;;;;4.10;92.18;99514.59;4171142;28;20072;-72
2021/09/21 01:02:14;;;;;;;9.80;6.38;;;;;;;4.02;92.89;99507.13;4169858;28;20261;-73
2021/09/21 01:04:15;;;;;;;11.77;7.72;;;;;;;3.90;94.60;99505.75;4169115;28;20192;-72
2021/09/21 01:06:16;;;;;;;10.75;7.22;;;;;;;3.88;94.69;99510.69;4168975;28;20462;-72
2021/09/21 01:08:16;;;;;;;8.90;6.38;;;;;;;3.86;94.58;99506.66;4170807;28;20029;-72
2021/09/21 01:10:22;;;;;;;13.13;6.60;;;;;;;3.86;94.29;99510.19;4169628;28;20036;-72
2021/09/21 01:12:23;;;;;;;9.68;6.15;;;;;;;3.84;94.16;99515.19;4172350;28;20552;-72
2021/09/21 01:14:23;;;;;;;12.50;6.88;;;;;;;3.69;94.41;99518.25;4168949;28;20464;-72
2021/09/21 01:16:24;;;;;;;8.05;5.65;;;;;;;3.68;94.38;99513.91;4168888;28;20045;-72
2021/09/21 01:18:26;;;;;;;7.82;5.95;;;;;;;3.64;94.52;99519.19;4170698;28;20049;-72
2021/09/21 01:20:27;;;;;;;10.25;6.57;;;;;;;3.61;94.40;99525.25;4169279;28;20128;-72
2021/09/21 01:22:27;;;;;;;10.10;6.50;;;;;;;3.63;94.12;99519.47;4169938;28;20045;-72
2021/09/21 01:24:29;;;;;;;8.45;5.88;;;;;;;3.59;94.60;99532.16;4169470;28;20599;-72
2021/09/21 01:26:29;;;;;;;11.18;6.65;;;;;;;3.56;94.41;99532.78;4170717;28;20057;-72
2021/09/21 01:28:29;;;;;;;9.55;6.53;;;;;;;3.52;94.39;99535.31;4168743;28;20045;-72
2021/09/21 01:30:30;;;;;;;8.32;6.57;;;;;;;3.49;94.35;99543.31;4170924;28;20037;-72
2021/09/21 01:32:30;;;;;;;10.77;6.68;;;;;;;3.47;94.17;99538.13;4169798;28;20123;-72
2021/09/21 01:34:33;;;;;;;9.70;6.45;;;;;;;3.42;94.40;99540.19;4169988;28;20381;-72
2021/09/21 01:36:33;;;;;;;;;;;;;;;3.41;94.63;99531.16;4169842;28;20053;-72
2021/09/21 01:38:33;;;;;;;10.73;6.88;;;;;;;3.41;94.38;99531.16;4168597;28;19917;-73
2021/09/21 01:40:34;;;;;;;12.73;7.47;;;;;;;3.37;94.35;99532.88;4170623;28;20044;-72
2021/09/21 01:42:39;;;;;;;11.30;7.55;;;;;;;3.41;94.44;99524.88;4170066;28;20327;-72
2021/09/21 01:44:40;;;;;;;11.60;7.38;;;;;;;3.32;94.63;99527.53;4168439;28;20146;-72
2021/09/21 01:46:40;;;;;;;9.70;6.38;;;;;;;3.26;94.25;99524.06;4169518;28;20045;-72
2021/09/21 01:48:40;;;;;;;9.23;7.13;;;;;;;3.26;94.47;99528.75;4170652;28;20053;-72
2021/09/21 01:50:57;;;;;;;9.05;6.47;;;;;;;3.22;94.51;99533.19;4168722;28;20049;-72
2021/09/21 02:00:03;;;;;;;16.98;6.47;;;;;;;3.21;94.46;99510.50;4168499;28;20048;-72
2021/09/21 02:02:04;;;;;;;8.95;6.30;;;;;;;3.34;93.89;99522.56;4169325;28;20033;-72
2021/09/21 02:04:07;;;;;;;13.45;7.22;;;;;;;3.37;93.20;99528.22;4167337;28;20499;-72
2021/09/21 02:06:09;;;;;;;9.75;6.57;;;;;;;3.42;92.94;99523.78;4169340;28;20153;-72
2021/09/21 02:08:09;;;;;;;9.68;6.88;;;;;;;3.39;91.93;99525.16;4169841;28;20033;-72
2021/09/21 02:10:10;;;;;;;11.50;7.07;;;;;;;3.27;91.56;99527.63;4170737;28;20473;-72
2021/09/21 02:12:10;;;;;;;10.88;6.50;;;;;;;3.21;92.62;99537.03;4169865;28;20029;-72
2021/09/21 02:14:13;;;;;;;9.70;6.38;;;;;;;3.22;93.53;99530.44;4166955;28;20044;-72
2021/09/21 02:16:13;;;;;;;;;;;;;;;3.25;93.52;99527.13;4170117;28;20033;-72
2021/09/21 02:18:13;;;;;;;10.95;6.05;;;;;;;3.23;91.67;99527.44;4169737;28;19982;-72
2021/09/21 02:20:14;;;;;;;12.93;5.75;;;;;;;3.21;92.11;99526.09;4169617;28;20041;-72
2021/09/21 02:22:14;;;;;;;9.82;6.40;;;;;;;3.25;93.41;99527.13;4168056;28;20025;-72
2021/09/21 02:24:19;;;;;;;9.95;6.25;;;;;;;3.27;93.28;99525.69;4168305;28;20499;-72
2021/09/21 02:26:19;;;;;;;8.60;5.82;;;;;;;3.29;92.36;99530.84;4169391;28;20067;-72
2021/09/21 02:28:19;;;;;;;7.38;5.35;;;;;;;3.29;92.16;99528.13;4169117;28;20502;-72
2021/09/21 02:30:20;;;;;;;8.52;5.15;;;;;;;3.26;92.14;99528.75;4169938;28;20048;-72
2021/09/21 02:32:20;;;;;;;7.38;4.85;;;;;;;3.23;93.29;99535.63;4169465;28;20484;-72
2021/09/21 02:34:20;;;;;;;9.65;5.40;;;;;;;3.33;94.33;99532.69;4168484;28;20053;-72
2021/09/21 02:36:22;;;;;;;7.15;5.07;;;;;;;3.37;94.09;99539.16;4168110;28;20041;-72
2021/09/21 02:38:22;;;;;;;9.90;5.72;;;;;;;3.37;92.86;99546.56;4170137;28;20041;-72
2021/09/21 02:40:23;;;;;;;7.25;5.10;;;;;;;3.44;93.37;99546.97;4168964;28;20037;-72
2021/09/21 02:42:23;;;;;;;9.70;5.15;;;;;;;3.47;93.47;99551.00;4169177;28;20125;-72
2021/09/21 02:44:23;;;;;;;9.13;5.38;;;;;;;3.52;93.30;99553.66;4167153;28;20458;-72
2021/09/21 02:46:24;;;;;;;9.35;6.40;;;;;;;3.53;93.64;99549.78;4168121;28;20041;-72
2021/09/21 02:48:24;;;;;;;7.95;5.50;;;;;;;3.61;94.12;99563.56;4169708;28;20056;-72
2021/09/21 02:50:24;;;;;;;8.25;5.15;;;;;;;3.74;94.04;99556.47;4168869;28;20048;-72
2021/09/21 02:52:25;;;;;;;7.22;5.10;;;;;;;3.82;93.06;99554.94;4169206;28;20045;-72
2021/09/21 02:54:25;;;;;;;8.73;6.15;;;;;;;3.88;92.70;99561.91;4168348;28;20082;-72
2021/09/21 02:56:26;;;;;;;8.20;5.38;;;;;;;3.85;92.42;99562.53;4167372;28;20163;-72
2021/09/21 02:58:26;;;;;;;6.82;4.65;;;;;;;3.81;92.44;99556.88;4167993;28;20516;-72
2021/09/21 03:00:28;;;;;;;8.23;5.22;;;;;;;3.78;93.25;99568.41;4169170;28;20064;-72
2021/09/21 03:02:31;;;;;;;8.48;5.28;;;;;;;3.81;92.74;99565.09;4169328;28;20223;-72
2021/09/21 03:04:36;;;;;;;9.05;5.55;;;;;;;3.81;93.11;99565.09;4167434;28;20045;-72
2021/09/21 03:06:41;;;;;;;7.53;5.50;;;;;;;3.83;93.71;99570.25;4168950;28;20037;-72
2021/09/21 03:08:41;;;;;;;8.35;5.22;;;;;;;3.86;93.68;99575.91;4168413;28;20080;-72
2021/09/21 03:13:29;;;;;;;7.95;5.30;;;;;;;4.02;92.92;99589.28;4167344;28;20362;-72
2021/09/21 03:17:40;;;;;;;8.82;5.22;;;;;;;4.10;92.80;99572.09;4168189;28;20059;-72
2021/09/21 03:19:40;;;;;;;11.98;5.40;;;;;;;4.11;92.93;99574.53;4168816;28;20036;-72
2021/09/21 03:21:41;;;;;;;7.95;5.15;;;;;;;4.14;92.97;99576.66;4168403;28;20053;-72
2021/09/21 03:23:41;;;;;;;7.75;5.10;;;;;;;4.20;93.22;99577.34;4167260;28;20048;-72
2021/09/21 03:25:42;;;;;;;7.20;5.20;;;;;;;4.27;93.02;99580.47;4168614;28;20033;-73
2021/09/21 03:27:42;;;;;;;6.78;5.45;;;;;;;4.27;93.04;99576.91;4168017;28;20049;-72
2021/09/21 03:29:42;;;;;;;8.93;5.43;;;;;;;4.28;92.67;99576.59;4169221;28;20037;-72
2021/09/21 03:31:43;;;;;;;7.70;4.97;;;;;;;4.37;92.49;99582.97;4166463;28;20477;-73
2021/09/21 03:33:43;;;;;;;9.25;5.72;;;;;;;4.42;92.24;99585.59;4165157;28;20045;-72
2021/09/21 03:35:43;;;;;;;7.50;5.65;;;;;;;4.53;91.93;99586.16;4169386;28;20461;-72
2021/09/21 03:37:44;;;;;;;6.03;4.40;;;;;;;4.58;90.86;99590.72;4168551;28;20391;-72
2021/09/21 03:39:45;;;;;;;8.13;5.32;;;;;;;4.61;91.25;99590.09;4167566;28;20037;-72
2021/09/21 03:41:45;;;;;;;8.10;5.32;;;;;;;4.67;91.34;99591.59;4166381;28;20071;-72
2021/09/21 03:43:45;;;;;;;8.80;6.00;;;;;;;4.69;91.83;99586.59;4165845;28;20037;-72
2021/09/21 03:45:46;;;;;;;9.30;5.75;;;;;;;4.71;91.32;99589.81;4166508;28;20299;-72
2021/09/21 03:47:46;;;;;;;9.52;5.78;;;;;;;4.72;91.74;99588.72;4166365;28;20833;-72
2021/09/21 03:49:46;;;;;;;12.13;5.82;;;;;;;4.70;91.43;99585.47;4157175;28;20335;-72
2021/09/21 03:51:47;;;;;;;8.65;6.00;;;;;;;4.74;91.56;99587.28;4164863;28;20052;-72
2021/09/21 03:53:47;;;;;;;8.25;5.45;;;;;;;4.80;91.32;99590.72;4167503;28;20037;-72
2021/09/21 03:55:48;;;;;;;7.95;5.43;;;;;;;4.84;90.62;99588.16;4167816;28;20075;-72
2021/09/21 03:57:48;;;;;;;7.75;5.57;;;;;;;4.90;91.26;99597.88;4169392;28;20049;-72
2021/09/21 03:59:48;;;;;;;7.43;5.50;;;;;;;4.93;90.34;99589.81;4158768;28;20046;-72
2021/09/21 04:01:49;;;;;;;7.97;5.00;;;;;;;4.94;90.68;99594.19;4167778;28;20044;-72
2021/09/21 04:03:49;;;;;;;8.50;5.73;;;;;;;4.97;90.48;99601.00;4168608;28;20406;-72
2021/09/21 04:05:50;;;;;;;9.23;6.25;;;;;;;4.94;90.32;99601.59;4157955;28;20257;-72
2021/09/21 04:07:51;;;;;;;8.77;6.25;;;;;;;4.89;90.30;99610.78;4168384;28;20049;-72
2021/09/21 04:09:51;;;;;;;10.48;5.78;;;;;;;4.87;90.66;99607.50;4170135;28;20044;-72
2021/09/21 04:11:51;;;;;;;10.02;5.65;;;;;;;4.87;90.58;99602.03;4168774;28;20033;-72
2021/09/21 04:13:52;;;;;;;8.82;5.53;;;;;;;4.88;91.30;99608.31;4168833;28;20041;-72
2021/09/21 04:15:52;;;;;;;11.48;6.30;;;;;;;4.86;90.92;99608.66;4168291;28;20037;-72
2021/09/21 04:17:52;;;;;;;13.55;6.07;;;;;;;4.86;91.44;99603.16;4170803;28;20118;-72
2021/09/21 04:19:53;;;;;;;11.40;6.10;;;;;;;4.86;91.20;99605.09;4169865;28;20064;-72
2021/09/21 04:21:53;;;;;;;7.63;5.78;;;;;;;4.85;91.69;99590.56;4170701;28;20045;-72
2021/09/21 04:23:53;;;;;;;11.82;6.05;;;;;;;4.88;90.95;99587.22;4169001;28;20103;-72
2021/09/21 04:25:54;;;;;;;9.90;5.70;;;;;;;4.93;90.65;99597.25;4169362;28;20463;-72
2021/09/21 04:27:54;;;;;;;10.50;6.25;;;;;;;4.95;90.91;99600.47;4169754;28;20061;-72
2021/09/21 04:29:59;;;;;;;9.52;5.95;;;;;;;4.97;91.07;99598.25;4169777;28;20480;-72
2021/09/21 04:32:02;;;;;;;8.90;5.93;;;;;;;4.96;90.95;99604.81;4170233;28;20182;-72
2021/09/21 04:34:02;;;;;;;10.13;5.72;;;;;;;4.95;91.35;99600.47;4167984;28;20049;-72
2021/09/21 04:36:04;;;;;;;11.20;6.18;;;;;;;4.94;91.31;99599.66;4169801;28;20487;-73
2021/09/21 04:38:04;;;;;;;8.43;5.97;;;;;;;4.98;91.38;99605.34;4169901;28;20091;-72
2021/09/21 04:40:06;;;;;;;12.40;6.90;;;;;;;4.97;91.28;99612.78;4170013;28;20267;-72
2021/09/21 04:42:06;;;;;;;8.50;5.32;;;;;;;4.92;91.70;99609.34;4170918;28;20373;-72
2021/09/21 04:44:07;;;;;;;9.00;5.78;;;;;;;4.89;91.53;99612.72;4170765;28;20114;-72
2021/09/21 04:46:08;;;;;;;11.27;5.95;;;;;;;4.96;92.13;99624.03;4170146;28;20056;-72
2021/09/21 04:48:09;;;;;;;8.93;5.57;;;;;;;5.00;92.10;99612.13;4170880;28;20041;-72
2021/09/21 04:50:09;;;;;;;10.90;5.95;;;;;;;4.99;92.21;99620.69;4171410;28;20037;-72
2021/09/21 04:52:09;;;;;;;10.48;5.78;;;;;;;4.97;92.48;99623.75;4171817;28;20095;-72
2021/09/21 04:54:10;;;;;;;8.75;6.05;;;;;;;4.94;92.41;99613.38;4170202;28;20045;-72
2021/09/21 04:56:10;;;;;;;8.88;5.05;;;;;;;4.91;92.06;99624.97;4170995;28;20033;-72
2021/09/21 04:58:11;;;;;;;23.92;6.53;;;;;;;4.96;92.27;99626.78;4171528;28;20041;-72
2021/09/21 05:00:11;;;;;;;12.82;6.35;;;;;;;5.01;91.36;99632.94;4170439;28;20455;-72
2021/09/21 05:02:12;;;;;;;13.73;6.55;;;;;;;5.06;91.69;99645.72;4171117;28;20029;-72
2021/09/21 05:04:12;;;;;;;10.15;5.82;;;;;;;5.08;91.28;99647.03;4170511;28;20040;-72
2021/09/21 05:06:12;;;;;;;14.45;7.15;;;;;;;5.15;91.14;99643.03;4170247;28;20038;-72
2021/09/21 05:08:13;;;;;;;9.32;6.53;;;;;;;5.18;91.10;99639.66;4170462;28;20037;-72
2021/09/21 05:10:13;;;;;;;12.10;6.35;;;;;;;5.19;90.72;99631.13;4171823;28;20461;-72
2021/09/21 05:12:14;;;;;;;12.23;5.55;;;;;;;5.23;90.99;99634.06;4171401;28;20592;-73
2021/09/21 05:14:14;;;;;;;11.15;6.80;;;;;;;5.23;91.28;99631.31;4168032;28;20104;-72
2021/09/21 05:16:14;;;;;;;9.27;6.30;;;;;;;5.21;91.77;99634.38;4170867;28;20021;-72
2021/09/21 05:18:15;;;;;;;11.10;5.93;;;;;;;5.20;91.40;99640.16;4171372;28;20040;-72
2021/09/21 05:20:15;;;;;;;10.48;6.45;;;;;;;5.17;92.04;99652.56;4170351;28;20427;-72
2021/09/21 05:22:16;;;;;;;14.25;6.20;;;;;;;5.17;92.02;99654.50;4170816;28;20496;-72
2021/09/21 05:24:16;;;;;;;10.90;6.65;;;;;;;5.22;91.33;99657.94;4170121;28;20037;-72
2021/09/21 05:26:17;;;;;;;10.82;5.82;;;;;;;5.29;90.76;99665.69;4168638;28;20078;-72
2021/09/21 05:28:18;;;;;;;16.58;8.95;;;;;;;5.26;90.53;99656.16;4170544;28;20143;-73
2021/09/21 05:30:19;;;;;;;13.70;6.50;;;;;;;5.26;91.12;99660.84;4171062;28;20045;-72
2021/09/21 05:32:20;;;;;;;11.43;6.55;;;;;;;5.22;91.20;99673.59;4170363;28;20055;-73
2021/09/21 05:34:20;;;;;;;17.80;8.50;;;;;;;5.25;92.35;99675.69;4169918;28;20045;-72
2021/09/21 05:36:21;;;;;;;8.13;5.85;;;;;;;5.26;91.46;99672.63;4170565;28;20545;-72
2021/09/21 05:38:21;;;;;;;13.57;6.38;;;;;;;5.32;91.04;99674.13;4171298;28;20615;-72
2021/09/21 05:40:22;;;;;;;13.50;6.28;;;;;;;5.39;90.66;99668.22;4169866;28;20231;-73
2021/09/21 05:42:22;;;;;;;13.30;5.93;;;;;;;5.39;91.15;99667.41;4170072;28;20045;-73
2021/09/21 05:44:23;;;;;;;8.10;5.90;;;;;;;5.43;91.53;99669.19;4169068;28;20048;-72
2021/09/21 05:46:24;;;;;;;12.40;6.18;;;;;;;5.42;92.15;99678.53;4168766;28;20043;-72
2021/09/21 05:48:24;;;;;;;8.93;6.28;;;;;;;5.43;93.00;99682.09;4169555;28;20830;-72
2021/09/21 05:50:24;;;;;;;9.30;5.93;;;;;;;5.46;92.76;99681.44;4170020;28;20049;-72
2021/09/21 05:52:25;;;;;;;12.32;5.07;;;;;;;5.47;93.79;99680.34;4170035;28;20033;-73
2021/09/21 05:54:25;;;;;;;8.40;5.82;;;;;;;5.48;93.65;99688.28;4169572;28;20047;-72
2021/09/21 05:56:25;;;;;;;5.75;4.60;;;;;;;5.47;94.02;99697.63;4169823;28;20045;-72
2021/09/21 05:58:26;;;;;;;6.40;4.93;;;;;;;5.49;93.69;99706.34;4169410;28;20114;-72
2021/09/21 06:00:26;;;;;;;8.02;5.43;;;;;;;5.52;93.38;99702.97;4170016;28;20063;-72
2021/09/21 06:02:27;;;;;;;8.82;5.32;;;;;;;5.56;93.18;99697.69;4169973;28;20045;-72
2021/09/21 06:04:27;;;;;;;9.23;5.15;;;;;;;5.61;93.98;99709.31;4169509;28;20198;-72
2021/09/21 06:06:27;;;;;;;9.00;5.35;;;;;;;5.71;93.47;99708.25;4169473;28;20041;-72
2021/09/21 06:08:28;;;;;;;6.70;5.13;;;;;;;5.73;93.44;99705.19;4170001;28;20496;-73
2021/09/21 06:10:28;;;;;;;7.90;5.43;;;;;;;5.75;93.37;99713.91;4170439;28;20675;-72
2021/09/21 06:12:29;;;;;;;7.75;5.43;;;;;;;5.76;92.53;99704.53;4169765;28;20049;-72
2021/09/21 06:14:29;;;;;;;7.15;5.03;;;;;;;5.79;92.38;99718.47;4169187;28;20382;-72
2021/09/21 06:16:29;;;;;;;6.90;5.03;;;;;;;5.82;91.77;99720.56;4169291;28;20041;-72
2021/09/21 06:18:30;;;;;;;8.60;5.43;;;;;;;5.85;92.20;99719.13;4169202;28;20060;-72
2021/09/21 06:20:30;;;;;;;8.23;5.85;;;;;;;5.87;91.88;99714.13;4170031;28;20045;-72
2021/09/21 06:22:31;;;;;;;8.30;6.28;;;;;;;5.88;92.44;99718.50;4170014;28;20051;-72
2021/09/21 06:24:31;;;;;;;9.52;5.40;;;;;;;5.90;91.93;99725.34;4169483;28;20045;-73
2021/09/21 06:26:32;;;;;;;6.32;5.15;;;;;;;5.93;92.04;99732.13;4169128;28;20037;-72
2021/09/21 06:28:32;;;;;;;9.05;5.97;;;;;;;5.93;92.41;99723.06;4169080;28;20507;-72
2021/09/21 06:30:33;;;;;;;9.52;5.63;;;;;;;5.91;91.84;99737.13;4168540;28;20053;-72
2021/09/21 06:32:33;;;;;;;8.90;5.65;;;;;;;5.93;92.37;99736.81;4168133;28;20041;-72
2021/09/21 06:34:34;;;;;;;16.50;7.38;;;;;;;5.94;92.21;99739.22;4166181;28;20390;-72
2021/09/21 06:36:34;;;;;;;6.75;5.38;;;;;;;5.97;92.49;99735.88;4167918;28;20041;-72
2021/09/21 06:38:37;;;;;;;9.75;6.00;;;;;;;5.99;91.99;99741.03;4169284;28;20464;-72
2021/09/21 06:40:37;;;;;;;7.75;5.32;;;;;;;6.04;92.33;99738.13;4169869;28;20045;-72
2021/09/21 06:42:41;;;;;;;8.90;5.72;;;;;;;6.08;91.24;99722.66;4169585;28;20433;-73
2021/09/21 06:44:41;;;;;;;8.73;5.22;;;;;;;6.13;90.55;99711.53;4168856;28;20097;-72
2021/09/21 06:46:42;;;;;;;9.45;5.88;;;;;;;6.18;90.69;99712.16;4168944;28;20049;-72
2021/09/21 06:48:42;;;;;;;10.43;5.78;;;;;;;6.26;90.68;99709.78;4169932;28;20049;-72
2021/09/21 06:50:42;;;;;;;7.85;5.97;;;;;;;6.31;90.61;99715.13;4169512;28;20049;-72
2021/09/21 06:52:43;;;;;;;8.68;5.32;;;;;;;6.38;90.27;99719.03;4168782;28;20451;-72
2021/09/21 06:54:43;;;;;;;8.70;5.55;;;;;;;6.44;90.28;99717.72;4168206;28;20052;-72
2021/09/21 06:56:44;;;;;;;8.63;5.53;;;;;;;6.45;91.72;99713.88;4168027;28;20110;-73
2021/09/21 06:58:44;;;;;;;7.47;5.50;;;;;;;6.52;91.81;99721.63;4169441;28;20319;-73
2021/09/21 07:00:46;;;;;;;7.82;5.50;;;;;;;6.57;92.68;99718.72;4169014;28;20384;-72
2021/09/21 07:02:51;;;;;;;8.93;6.30;;;;;;;6.58;92.37;99712.09;4169040;28;20531;-72
2021/09/21 07:04:51;;;;;;;12.32;6.97;;;;;;;6.68;93.54;99728.28;4167996;28;20064;-72
2021/09/21 07:06:51;;;;;;;10.88;6.22;;;;;;;6.71;93.30;99732.34;4168994;28;20041;-72
2021/09/21 07:08:52;;;;;;;10.88;7.20;;;;;;;6.72;93.02;99729.28;4167548;28;20096;-72
2021/09/21 07:10:52;;;;;;;8.95;6.50;;;;;;;6.78;92.65;99734.59;4168770;28;20448;-72
2021/09/21 07:12:53;;;;;;;9.35;6.40;;;;;;;6.80;92.27;99735.09;4169439;28;20060;-73
2021/09/21 07:14:53;;;;;;;14.43;6.68;;;;;;;6.84;92.01;99728.63;4168371;28;20040;-72
2021/09/21 07:16:53;;;;;;;9.50;5.47;;;;;;;6.88;92.76;99729.63;4169508;28;20037;-72
2021/09/21 07:18:54;;;;;;;10.18;6.05;;;;;;;6.94;91.97;99736.56;4168873;28;20053;-72
2021/09/21 07:20:54;;;;;;;10.20;5.85;;;;;;;7.00;91.95;99737.22;4168986;28;20049;-72
2021/09/21 07:22:54;;;;;;;7.05;5.55;;;;;;;7.05;91.77;99737.06;4169522;28;20041;-72
2021/09/21 07:24:56;;;;;;;11.25;5.55;;;;;;;7.13;91.93;99733.50;4167479;28;20112;-72
2021/09/21 07:26:56;;;;;;;9.57;5.55;;;;;;;7.16;91.12;99746.59;4166057;28;20070;-73
2021/09/21 07:28:56;;;;;;;7.20;5.13;;;;;;;7.25;90.91;99754.84;4168350;28;20448;-72
2021/09/21 07:30:57;;;;;;;8.85;5.40;;;;;;;7.35;91.66;99748.19;4167594;28;20052;-73
2021/09/21 07:32:57;;;;;;;9.00;6.28;;;;;;;7.42;91.54;99749.31;4168565;28;20106;-72
2021/09/21 07:34:58;;;;;;;9.20;6.65;;;;;;;7.50;91.12;99759.50;4167952;28;20064;-72
2021/09/21 07:36:58;;;;;;;17.52;11.15;;;;;;;7.57;90.57;99765.34;4169520;28;20071;-72
2021/09/21 07:38:59;;;;;;;16.35;9.82;;;;;;;7.65;89.77;99760.16;4169131;28;20392;-72
2021/09/21 07:40:59;;;;;;;14.90;8.98;;;;;;;7.74;89.70;99755.44;4168161;28;20072;-72
2021/09/21 07:43:00;;;;;;;9.57;6.40;;;;;;;7.82;88.53;99757.34;4169363;28;20047;-72
2021/09/21 07:45:01;;;;;;;10.00;6.13;;;;;;;7.90;88.09;99756.50;4167585;28;20049;-72
2021/09/21 07:47:01;;;;;;;8.82;6.47;;;;;;;8.00;88.62;99761.66;4167934;28;20392;-72
2021/09/21 07:49:01;;;;;;;11.85;6.43;;;;;;;8.12;88.63;99769.25;4168285;28;20518;-72
2021/09/21 07:51:02;;;;;;;13.38;6.80;;;;;;;8.18;87.83;99770.66;4168946;28;20071;-72
2021/09/21 07:53:02;;;;;;;8.98;5.88;;;;;;;8.33;87.50;99783.09;4167972;28;20033;-72
2021/09/21 07:55:03;;;;;;;8.13;5.70;;;;;;;8.41;87.36;99785.03;4168300;28;20053;-72
2021/09/21 07:57:04;;;;;;;16.35;7.10;;;;;;;8.49;86.97;99789.72;4168336;28;20044;-73
2021/09/21 07:59:05;;;;;;;9.95;6.45;;;;;;;8.57;86.78;99799.06;4168922;28;20049;-72
2021/09/21 08:01:06;;;;;;;10.48;6.18;;;;;;;8.69;87.61;99804.72;4169484;28;20049;-72
2021/09/21 08:03:06;;;;;;;7.75;5.35;;;;;;;8.77;87.98;99805.78;4168070;28;20045;-73
2021/09/21 08:05:07;;;;;;;9.70;5.97;;;;;;;8.82;87.21;99808.34;4167634;28;20473;-72
2021/09/21 08:07:07;;;;;;;7.90;5.00;;;;;;;8.84;86.25;99808.81;4168792;28;20079;-73
2021/09/21 08:09:08;;;;;;;7.43;5.38;;;;;;;8.91;86.78;99806.34;4167788;28;20041;-72
2021/09/21 08:11:10;;;;;;;8.18;5.18;;;;;;;8.94;87.58;99809.25;4169179;28;20056;-73
2021/09/21 08:13:11;;;;;;;7.93;5.25;;;;;;;9.00;87.97;99807.91;4167105;28;20045;-73
2021/09/21 08:15:11;;;;;;;8.15;5.28;;;;;;;9.06;87.31;99807.72;4168653;28;20098;-73
2021/09/21 08:17:12;;;;;;;6.10;5.03;;;;;;;9.14;86.59;99806.84;4168821;28;20041;-73
2021/09/21 08:19:12;;;;;;;7.78;5.32;;;;;;;9.20;86.02;99811.84;4169099;28;20049;-72
2021/09/21 08:21:12;;;;;;;10.30;6.22;;;;;;;9.24;86.22;99810.00;4168237;28;20548;-73
2021/09/21 08:23:13;;;;;;;8.65;5.30;;;;;;;9.34;87.15;99819.03;4167105;28;20053;-73
2021/09/21 08:25:18;;;;;;;9.43;5.38;;;;;;;9.36;84.77;99817.56;4166749;28;20555;-73
2021/09/21 08:27:19;;;;;;;9.52;5.88;;;;;;;9.40;84.37;99818.50;4167209;28;20500;-73
2021/09/21 08:29:19;;;;;;;8.70;5.43;;;;;;;9.43;84.47;99823.34;4166984;28;20044;-72
2021/09/21 08:31:19;;;;;;;6.47;5.05;;;;;;;9.45;84.85;99815.53;4168881;28;20103;-72
2021/09/21 08:33:20;;;;;;;7.47;5.72;;;;;;;9.52;84.71;99826.84;4168494;28;20064;-73
2021/09/21 08:35:20;;;;;;;7.50;4.82;;;;;;;9.55;85.08;99828.94;4168126;28;20040;-72
2021/09/21 08:37:20;;;;;;;5.60;4.85;;;;;;;9.62;85.18;99833.91;4168485;28;20045;-73
2021/09/21 08:39:21;;;;;;;7.05;4.75;;;;;;;9.71;84.09;99829.13;4170639;28;20037;-73
2021/09/21 08:41:21;;;;;;;7.38;5.00;;;;;;;9.75;83.11;99826.47;4170582;28;20052;-73
2021/09/21 08:43:22;;;;;;;9.82;4.63;;;;;;;9.79;83.01;99830.19;4169568;28;20530;-72
2021/09/21 08:45:22;;;;;;;6.47;4.90;;;;;;;9.84;83.41;99827.19;4171025;28;20037;-73
2021/09/21 08:47:23;;;;;;;11.38;5.53;;;;;;;9.93;83.36;99830.69;4169502;28;20143;-73
2021/09/21 08:49:24;;;;;;;6.13;4.68;;;;;;;9.92;81.71;99826.28;4170554;28;20417;-73
2021/09/21 08:51:24;;;;;;;7.32;5.05;;;;;;;10.02;82.72;99827.84;4170493;28;20493;-73
2021/09/21 08:53:24;;;;;;;9.82;5.47;;;;;;;10.09;82.34;99828.91;4169846;28;20049;-73
2021/09/21 08:55:25;;;;;;;6.43;5.10;;;;;;;10.17;82.74;99835.47;4171481;28;20049;-73
2021/09/21 08:57:25;;;;;;;8.00;5.40;;;;;;;10.24;82.97;99840.47;4171694;28;20049;-73
2021/09/21 08:59:32;;;;;;;6.28;5.00;;;;;;;10.34;81.15;99831.72;4153382;28;20096;-73
2021/09/21 09:01:40;;;;;;;7.47;5.13;;;;;;;10.38;80.62;99836.25;4170956;28;20084;-73
2021/09/21 09:03:57;;;;;;;9.15;5.43;;;;;;;10.41;80.73;99827.22;4169851;28;20037;-73
2021/09/21 09:06:07;;;;;;;8.02;6.10;;;;;;;10.50;82.51;99837.38;4171567;28;20381;-73
2021/09/21 09:08:07;;;;;;;7.43;5.50;;;;;;;10.55;81.79;99835.22;4152530;28;20077;-73
2021/09/21 09:10:08;;;;;;;6.45;4.95;;;;;;;10.60;81.68;99825.91;4154355;28;20689;-73
2021/09/21 09:12:08;;;;;;;7.95;4.97;;;;;;;10.67;79.99;99831.63;4170262;28;20033;-73
2021/09/21 09:14:17;;;;;;;8.88;5.60;;;;;;;10.72;79.05;99836.16;4170148;28;20423;-73
2021/09/21 09:16:18;;;;;;;8.77;5.47;;;;;;;10.84;79.64;99838.91;4168903;28;20473;-73
2021/09/21 09:18:23;;;;;;;8.43;5.35;;;;;;;10.87;79.07;99838.22;4171050;28;20156;-73
2021/09/21 09:20:37;;;;;;;6.25;4.50;;;;;;;10.87;79.29;99830.72;4169556;28;20086;-73
2021/09/21 09:22:37;;;;;;;7.22;5.18;;;;;;;10.93;79.24;99831.31;4170616;28;20396;-73
2021/09/21 09:24:49;;;;;;;7.00;5.15;;;;;;;10.94;78.98;99836.50;4170183;28;20041;-73
2021/09/21 09:26:50;;;;;;;9.38;6.38;;;;;;;11.02;79.07;99837.53;4170264;28;20502;-73
2021/09/21 09:28:51;;;;;;;9.55;6.20;;;;;;;11.08;78.51;99835.31;4171332;28;20048;-73
2021/09/21 09:30:54;;;;;;;10.45;6.78;;;;;;;11.13;76.90;99841.41;4171456;28;20056;-73
2021/09/21 09:33:00;;;;;;;8.30;6.55;;;;;;;11.08;76.18;99838.88;4167936;28;20084;-73
2021/09/21 09:35:00;;;;;;;10.05;5.90;;;;;;;11.19;76.91;99842.00;4169965;28;20044;-73
2021/09/21 09:37:04;;;;;;;7.40;5.53;;;;;;;11.27;78.27;99840.25;4170213;28;20366;-73
2021/09/21 09:39:06;;;;;;;10.05;5.80;;;;;;;11.34;77.29;99840.47;4169759;28;20052;-73
2021/09/21 09:41:07;;;;;;;11.73;7.10;;;;;;;11.41;77.40;99852.56;4169945;28;20076;-73
2021/09/21 09:43:07;;;;;;;7.75;5.75;;;;;;;11.49;76.93;99845.25;4169966;28;20049;-73
2021/09/21 09:45:08;;;;;;;8.75;6.00;;;;;;;11.57;75.89;99837.97;4170078;28;20041;-73
2021/09/21 09:47:08;;;;;;;7.00;5.28;;;;;;;11.63;77.68;99833.78;4170381;28;20069;-72